Time;durP1;ratioP1;P1;durP2;ratioP2;P2;SDS_P1;SDS_P2;PMS_P1;PMS_P2;Temp;Humidity;BMP_temperature;BMP_pressure;BME280_temperature;BME280_humidity;BME280_pressure;Samples;Min_cycle;Max_cycle;Signal;HPM_P1;HPM_P2
2023/10/03 00:02:03;;;;;;;43.83;21.80;;;;;;;;;;5035237;28;20116;-87
2023/10/03 00:04:29;;;;;;;43.53;22.42;;;;;;;;;;5035708;28;20026;-87
2023/10/03 00:06:55;;;;;;;43.50;22.20;;;;;;;;;;5034936;28;20108;-87
2023/10/03 00:09:34;;;;;;;;;;;;;;;;;;;;;
2023/10/03 00:12:03;;;;;;;47.55;23.05;;;;;;;;;;5036436;28;20037;-87
2023/10/03 00:14:31;;;;;;;46.10;23.17;;;;;;;;;;5034728;28;20379;-87
2023/10/03 00:17:04;;;;;;;47.03;22.45;;;;;;;;;;5034593;28;20048;-87
2023/10/03 00:19:35;;;;;;;43.75;22.65;;;;;;;;;;5035159;28;20025;-87
2023/10/03 00:22:01;;;;;;;48.08;21.88;;;;;;;;;;5035049;28;20065;-88
2023/10/03 00:24:27;;;;;;;46.35;22.30;;;;;;;;;;5035121;28;20026;-88
2023/10/03 00:26:53;;;;;;;45.78;21.73;;;;;;;;;;5047232;28;20381;-88
2023/10/03 00:32:35;;;;;;;42.10;20.95;;;;;;;;;;5055763;28;20095;-87
2023/10/03 00:35:15;;;;;;;40.65;22.48;;;;;;;;;;5054750;28;20025;-88
2023/10/03 00:37:53;;;;;;;41.17;22.70;;;;;;;;;;5055147;28;20025;-87
2023/10/03 00:40:27;;;;;;;44.17;22.40;;;;;;;;;;5054076;28;20035;-88
2023/10/03 00:43:12;;;;;;;46.13;23.27;;;;;;;;;;5054604;28;20029;-87
2023/10/03 00:45:49;;;;;;;47.70;23.02;;;;;;;;;;5054650;28;20033;-88
2023/10/03 00:48:17;;;;;;;48.42;22.92;;;;;;;;;;5054415;28;20382;-87
2023/10/03 00:50:49;;;;;;;46.20;22.13;;;;;;;;;;5054917;28;20025;-88
2023/10/03 00:53:27;;;;;;;45.28;22.63;;;;;;;;;;5053902;28;20020;-88
2023/10/03 00:56:05;;;;;;;47.13;23.58;;;;;;;;;;5053848;28;20426;-88
2023/10/03 00:58:45;;;;;;;47.67;23.33;;;;;;;;;;5054118;28;20035;-88
2023/10/03 01:01:51;;;;;;;;;;;;;;;;;;;;;
2023/10/03 01:04:40;;;;;;;44.45;22.35;;;;;;;;;;5059543;28;20116;-87
2023/10/03 01:07:27;;;;;;;43.80;21.33;;;;;;;;;;5054566;28;20463;-88
2023/10/03 01:10:18;;;;;;;43.13;21.45;;;;;;;;;;5054208;28;20021;-88
2023/10/03 01:16:21;;;;;;;;;;;;;;;;;;;;;
2023/10/03 01:25:13;;;;;;;43.60;21.25;;;;;;;;;;5013093;28;20380;-88
2023/10/03 01:27:58;;;;;;;45.20;21.50;;;;;;;;;;4996067;28;20137;-88
2023/10/03 01:30:37;;;;;;;;;;;;;;;;;;;;;
2023/10/03 01:33:19;;;;;;;;;;;;;;;;;;;;;
2023/10/03 01:35:55;;;;;;;45.83;22.33;;;;;;;;;;5035111;28;20349;-87
2023/10/03 01:38:37;;;;;;;44.25;20.70;;;;;;;;;;5033299;28;20064;-88
2023/10/03 01:41:14;;;;;;;43.17;20.15;;;;;;;;;;5034064;28;20022;-88
2023/10/03 01:43:48;;;;;;;42.28;20.17;;;;;;;;;;5033435;28;20029;-88
2023/10/03 01:46:14;;;;;;;40.50;19.13;;;;;;;;;;5033796;28;20383;-88
2023/10/03 01:48:49;;;;;;;39.10;19.48;;;;;;;;;;5032898;28;20040;-88
2023/10/03 01:51:18;;;;;;;39.80;20.25;;;;;;;;;;5032558;28;20133;-88
2023/10/03 01:56:54;;;;;;;40.17;19.33;;;;;;;;;;5034100;28;20087;-87
2023/10/03 01:59:30;;;;;;;42.65;19.42;;;;;;;;;;5033085;28;20127;-88
2023/10/03 02:02:06;;;;;;;43.45;20.13;;;;;;;;;;5033337;28;20044;-88
2023/10/03 02:05:08;;;;;;;40.25;20.27;;;;;;;;;;5032496;28;20391;-88
2023/10/03 02:07:39;;;;;;;38.17;18.15;;;;;;;;;;5033121;28;20025;-88
2023/10/03 02:16:39;;;;;;;;;;;;;;;;;;;;;
2023/10/03 02:19:06;;;;;;;37.38;17.17;;;;;;;;;;5049101;28;20045;-87
2023/10/03 02:21:46;;;;;;;39.30;17.33;;;;;;;;;;5043357;28;20048;-88
2023/10/03 02:24:14;;;;;;;;;;;;;;;;;;5043923;28;20105;-87
2023/10/03 02:26:45;;;;;;;42.53;16.75;;;;;;;;;;5065652;28;19924;-88
2023/10/03 02:29:17;;;;;;;40.28;16.58;;;;;;;;;;5058720;28;20025;-87
2023/10/03 02:31:49;;;;;;;35.17;15.77;;;;;;;;;;5053926;28;20033;-88
2023/10/03 02:40:22;;;;;;;35.67;15.93;;;;;;;;;;5053883;28;20075;-88
2023/10/03 02:43:10;;;;;;;36.63;15.43;;;;;;;;;;5052805;28;20498;-87
2023/10/03 02:45:42;;;;;;;36.00;14.88;;;;;;;;;;5053209;28;20033;-87
2023/10/03 02:48:23;;;;;;;32.53;13.65;;;;;;;;;;5052807;28;20029;-87
2023/10/03 02:50:55;;;;;;;34.20;14.38;;;;;;;;;;5053072;28;20036;-87
2023/10/03 02:53:29;;;;;;;33.40;13.77;;;;;;;;;;5052241;28;20029;-87
2023/10/03 02:56:05;;;;;;;36.55;13.43;;;;;;;;;;5052482;28;20032;-87
2023/10/03 02:58:31;;;;;;;38.95;15.55;;;;;;;;;;5052215;28;20029;-87
2023/10/03 03:01:05;;;;;;;35.63;13.25;;;;;;;;;;5052429;28;20033;-87
2023/10/03 03:03:34;;;;;;;37.42;14.27;;;;;;;;;;5052544;28;20086;-87
2023/10/03 03:06:14;;;;;;;31.88;13.40;;;;;;;;;;5056116;28;20021;-87
2023/10/03 03:08:40;;;;;;;;;;;;;;;;;;5056705;28;20035;-87
2023/10/03 03:11:06;;;;;;;34.30;12.75;;;;;;;;;;5056393;28;19987;-87
2023/10/03 03:13:35;;;;;;;35.00;13.50;;;;;;;;;;5055748;28;20471;-88
2023/10/03 03:22:04;;;;;;;28.67;12.40;;;;;;;;;;5056901;28;20032;-87
2023/10/03 03:24:33;;;;;;;33.58;14.15;;;;;;;;;;5055787;28;20056;-88
2023/10/03 03:27:11;;;;;;;33.47;12.30;;;;;;;;;;5055762;28;20083;-87
2023/10/03 03:29:57;;;;;;;31.27;12.82;;;;;;;;;;5055551;28;20029;-87
2023/10/03 03:32:30;;;;;;;32.92;13.15;;;;;;;;;;5056099;28;20017;-87
2023/10/03 03:34:56;;;;;;;33.08;13.40;;;;;;;;;;5056282;28;20048;-87
2023/10/03 03:37:27;;;;;;;30.35;12.93;;;;;;;;;;5055314;28;20078;-87
2023/10/03 03:40:10;;;;;;;32.45;12.52;;;;;;;;;;5055181;28;20399;-87
2023/10/03 03:42:46;;;;;;;30.70;12.85;;;;;;;;;;5056531;28;20036;-87
2023/10/03 03:45:12;;;;;;;32.90;13.63;;;;;;;;;;5057986;28;20033;-87
2023/10/03 03:47:40;;;;;;;30.65;12.68;;;;;;;;;;5060128;28;20021;-87
2023/10/03 03:50:10;;;;;;;32.08;11.90;;;;;;;;;;5056673;28;20200;-87
2023/10/03 03:52:36;;;;;;;34.35;12.20;;;;;;;;;;5054936;28;20068;-87
2023/10/03 03:55:04;;;;;;;28.77;13.15;;;;;;;;;;5055213;28;20095;-87
2023/10/03 03:57:30;;;;;;;29.45;12.52;;;;;;;;;;5055098;28;20029;-88
2023/10/03 03:59:56;;;;;;;27.98;12.30;;;;;;;;;;5055504;28;20025;-88
2023/10/03 04:02:23;;;;;;;31.92;12.35;;;;;;;;;;5054985;28;20037;-88
2023/10/03 04:04:49;;;;;;;25.27;11.52;;;;;;;;;;5055901;28;20111;-88
2023/10/03 04:07:22;;;;;;;29.45;11.90;;;;;;;;;;5054897;28;20021;-88
2023/10/03 04:09:48;;;;;;;28.17;10.43;;;;;;;;;;5054865;28;20071;-87
2023/10/03 04:12:14;;;;;;;26.85;11.85;;;;;;;;;;5054870;28;20033;-88
2023/10/03 04:14:40;;;;;;;23.88;10.38;;;;;;;;;;5054774;28;20025;-88
2023/10/03 04:17:15;;;;;;;24.15;9.57;;;;;;;;;;5054478;28;20025;-88
2023/10/03 04:19:41;;;;;;;28.40;10.80;;;;;;;;;;5055156;28;20025;-88
2023/10/03 04:22:10;;;;;;;28.80;9.98;;;;;;;;;;5055079;28;20040;-88
2023/10/03 04:24:36;;;;;;;25.57;10.73;;;;;;;;;;5054660;28;20086;-88
2023/10/03 04:27:03;;;;;;;27.83;10.52;;;;;;;;;;5054239;28;20045;-88
2023/10/03 04:29:29;;;;;;;30.55;11.55;;;;;;;;;;5054620;28;20028;-87
2023/10/03 04:31:58;;;;;;;31.55;11.85;;;;;;;;;;5054416;28;20116;-88
2023/10/03 04:34:24;;;;;;;32.65;12.05;;;;;;;;;;5055105;28;20116;-88
2023/10/03 04:36:54;;;;;;;30.02;11.32;;;;;;;;;;5053930;28;20033;-88
2023/10/03 04:39:22;;;;;;;30.60;11.05;;;;;;;;;;5054576;28;20029;-88
2023/10/03 04:41:51;;;;;;;30.60;12.18;;;;;;;;;;5054568;28;20029;-88
2023/10/03 04:44:17;;;;;;;28.75;10.40;;;;;;;;;;5060470;28;20442;-88
2023/10/03 04:46:48;;;;;;;34.65;13.13;;;;;;;;;;5056942;28;20075;-87
2023/10/03 04:49:15;;;;;;;34.17;13.07;;;;;;;;;;5054405;28;20051;-87
2023/10/03 04:51:45;;;;;;;36.75;12.38;;;;;;;;;;5054938;28;20021;-87
2023/10/03 04:54:12;;;;;;;31.23;12.70;;;;;;;;;;5054601;28;20024;-87
2023/10/03 04:56:38;;;;;;;41.33;13.73;;;;;;;;;;5055025;28;20067;-87
2023/10/03 04:59:07;;;;;;;33.28;13.85;;;;;;;;;;5054772;28;20027;-87
2023/10/03 05:01:33;;;;;;;41.87;14.03;;;;;;;;;;5053948;28;20021;-87
2023/10/03 05:04:06;;;;;;;36.40;13.88;;;;;;;;;;5053988;28;20036;-87
2023/10/03 05:06:33;;;;;;;33.30;13.88;;;;;;;;;;5054300;28;20071;-87
2023/10/03 05:08:59;;;;;;;39.90;14.50;;;;;;;;;;5057468;28;20493;-87
2023/10/03 05:11:25;;;;;;;37.10;14.95;;;;;;;;;;5072292;28;20036;-87
2023/10/03 05:13:51;;;;;;;31.42;13.55;;;;;;;;;;5058772;28;20429;-87
2023/10/03 05:16:17;;;;;;;41.13;15.88;;;;;;;;;;5064240;28;20081;-87
2023/10/03 05:18:43;;;;;;;35.50;14.65;;;;;;;;;;5070163;28;20025;-87
2023/10/03 05:21:13;;;;;;;38.28;15.73;;;;;;;;;;5056148;28;20033;-87
2023/10/03 05:23:42;;;;;;;40.88;15.20;;;;;;;;;;5054471;28;20082;-87
2023/10/03 05:26:08;;;;;;;35.60;15.30;;;;;;;;;;5053914;28;20028;-87
2023/10/03 05:28:38;;;;;;;37.30;15.63;;;;;;;;;;5056048;28;20037;-87
2023/10/03 05:31:12;;;;;;;40.05;18.38;;;;;;;;;;5056596;28;20025;-87
2023/10/03 05:33:42;;;;;;;36.15;16.42;;;;;;;;;;5057060;28;20421;-87
2023/10/03 05:36:14;;;;;;;40.63;18.33;;;;;;;;;;5056439;28;20025;-87
2023/10/03 05:38:48;;;;;;;38.60;16.63;;;;;;;;;;5057534;28;20021;-87
2023/10/03 05:41:18;;;;;;;33.35;15.18;;;;;;;;;;5057109;28;20078;-87
2023/10/03 05:43:44;;;;;;;31.95;14.80;;;;;;;;;;5057121;28;20032;-87
2023/10/03 05:46:11;;;;;;;30.80;14.15;;;;;;;;;;5057038;28;20044;-87
2023/10/03 05:48:37;;;;;;;27.90;13.63;;;;;;;;;;5057228;28;20473;-87
2023/10/03 05:51:06;;;;;;;27.95;13.60;;;;;;;;;;5056049;28;20481;-87
2023/10/03 05:53:34;;;;;;;28.55;13.05;;;;;;;;;;5056323;28;20090;-87
2023/10/03 05:56:04;;;;;;;27.52;13.00;;;;;;;;;;5058539;28;20029;-87
2023/10/03 05:58:32;;;;;;;31.40;13.32;;;;;;;;;;5059890;28;20029;-87
2023/10/03 06:00:59;;;;;;;28.02;12.82;;;;;;;;;;5058764;28;20390;-87
2023/10/03 06:03:25;;;;;;;32.28;12.15;;;;;;;;;;5057986;28;20036;-87
2023/10/03 06:05:51;;;;;;;27.70;10.20;;;;;;;;;;5058093;28;20497;-87
2023/10/03 06:08:18;;;;;;;28.25;10.35;;;;;;;;;;5058054;28;20116;-87
2023/10/03 06:10:44;;;;;;;28.00;9.77;;;;;;;;;;5058362;28;20024;-87
2023/10/03 06:13:10;;;;;;;30.17;8.80;;;;;;;;;;5057658;28;20037;-87
2023/10/03 06:15:37;;;;;;;22.30;6.25;;;;;;;;;;5057247;28;20025;-87
2023/10/03 06:18:06;;;;;;;26.55;6.40;;;;;;;;;;5057005;28;20031;-87
2023/10/03 06:20:35;;;;;;;19.70;4.25;;;;;;;;;;5056984;28;20029;-87
2023/10/03 06:23:04;;;;;;;24.42;5.32;;;;;;;;;;5057607;28;20032;-87
2023/10/03 06:25:31;;;;;;;22.13;4.70;;;;;;;;;;5056942;28;20029;-87
2023/10/03 06:27:57;;;;;;;21.55;4.57;;;;;;;;;;5053025;28;20048;-87
2023/10/03 06:30:23;;;;;;;12.73;4.05;;;;;;;;;;5053940;28;20095;-87
2023/10/03 06:32:52;;;;;;;21.13;3.85;;;;;;;;;;5052967;28;20029;-87
2023/10/03 06:35:20;;;;;;;17.05;3.17;;;;;;;;;;5052984;28;20116;-87
2023/10/03 06:37:46;;;;;;;11.93;3.15;;;;;;;;;;5052602;28;20025;-87
2023/10/03 06:40:16;;;;;;;11.82;2.63;;;;;;;;;;5057218;28;20025;-87
2023/10/03 06:42:42;;;;;;;11.93;3.60;;;;;;;;;;5056417;28;20052;-87
2023/10/03 06:45:09;;;;;;;9.13;2.45;;;;;;;;;;5057122;28;20024;-87
2023/10/03 06:47:36;;;;;;;9.10;2.40;;;;;;;;;;5057072;28;20083;-87
2023/10/03 06:50:05;;;;;;;11.15;2.00;;;;;;;;;;5056962;28;20021;-87
2023/10/03 06:52:32;;;;;;;8.25;1.67;;;;;;;;;;5056641;28;20021;-87
2023/10/03 06:54:58;;;;;;;8.25;1.65;;;;;;;;;;5057022;28;20029;-87
2023/10/03 06:57:24;;;;;;;10.20;1.80;;;;;;;;;;5056410;28;20100;-86
2023/10/03 06:59:51;;;;;;;8.55;2.03;;;;;;;;;;5056142;28;20028;-87
2023/10/03 07:02:18;;;;;;;6.45;1.23;;;;;;;;;;5056172;28;20029;-87
2023/10/03 07:04:44;;;;;;;7.63;1.33;;;;;;;;;;5056638;28;20025;-87
2023/10/03 07:07:11;;;;;;;9.02;1.90;;;;;;;;;;5056188;28;20021;-87
2023/10/03 07:09:40;;;;;;;7.32;1.42;;;;;;;;;;5056039;28;20116;-87
2023/10/03 07:12:09;;;;;;;7.97;1.63;;;;;;;;;;5056062;28;20028;-87
2023/10/03 07:14:36;;;;;;;7.50;1.30;;;;;;;;;;5056106;28;20017;-87
2023/10/03 07:17:03;;;;;;;6.90;1.35;;;;;;;;;;5055714;28;20029;-87
2023/10/03 07:19:30;;;;;;;10.73;1.70;;;;;;;;;;5055937;28;20025;-87
2023/10/03 07:21:56;;;;;;;7.63;1.40;;;;;;;;;;5056526;28;20025;-87
2023/10/03 07:24:24;;;;;;;7.97;1.50;;;;;;;;;;5055742;28;20538;-87
2023/10/03 07:26:51;;;;;;;9.15;1.48;;;;;;;;;;5055512;28;20049;-87
2023/10/03 07:29:21;;;;;;;6.55;1.45;;;;;;;;;;5055806;28;20067;-87
2023/10/03 07:31:48;;;;;;;7.65;1.33;;;;;;;;;;5056249;28;20471;-87
2023/10/03 07:34:17;;;;;;;4.40;0.70;;;;;;;;;;5056480;28;20029;-87
2023/10/03 07:36:44;;;;;;;7.95;0.80;;;;;;;;;;5055691;28;20033;-87
2023/10/03 07:39:10;;;;;;;6.18;1.10;;;;;;;;;;5056134;28;20040;-87
2023/10/03 07:41:38;;;;;;;4.85;1.05;;;;;;;;;;5055547;28;20021;-87
2023/10/03 07:44:05;;;;;;;8.27;1.08;;;;;;;;;;5055465;28;20091;-86
2023/10/03 07:46:31;;;;;;;5.07;0.80;;;;;;;;;;5055330;28;20120;-86
2023/10/03 07:48:57;;;;;;;4.75;1.10;;;;;;;;;;5055829;28;20020;-86
2023/10/03 07:51:26;;;;;;;6.80;1.00;;;;;;;;;;5054690;28;20032;-87
2023/10/03 07:53:52;;;;;;;4.93;0.52;;;;;;;;;;5055388;28;20025;-86
2023/10/03 07:56:33;;;;;;;4.65;1.02;;;;;;;;;;5055266;28;20047;-87
2023/10/03 07:59:02;;;;;;;3.47;0.65;;;;;;;;;;5056248;28;20029;-86
2023/10/03 08:01:29;;;;;;;4.93;0.63;;;;;;;;;;5061135;28;20075;-86
2023/10/03 08:03:56;;;;;;;3.60;0.28;;;;;;;;;;5074158;28;20041;-86
2023/10/03 08:06:27;;;;;;;2.90;0.47;;;;;;;;;;5061079;28;20059;-86
2023/10/03 08:08:53;;;;;;;3.63;0.95;;;;;;;;;;5069535;28;20028;-86
2023/10/03 08:11:28;;;;;;;3.33;0.50;;;;;;;;;;5073647;28;20048;-87
2023/10/03 08:13:54;;;;;;;2.47;0.30;;;;;;;;;;5057812;28;20029;-88
2023/10/03 08:16:22;;;;;;;1.67;0.40;;;;;;;;;;5056249;28;20116;-86
2023/10/03 08:18:57;;;;;;;2.53;0.20;;;;;;;;;;5054900;28;20472;-86
2023/10/03 08:21:24;;;;;;;3.78;0.22;;;;;;;;;;5055685;28;20110;-86
2023/10/03 08:23:51;;;;;;;3.17;0.50;;;;;;;;;;5054646;28;20036;-86
2023/10/03 08:26:17;;;;;;;2.50;0.25;;;;;;;;;;5055047;28;20028;-86
2023/10/03 08:28:43;;;;;;;2.50;0.50;;;;;;;;;;5058857;28;20020;-86
2023/10/03 08:31:14;;;;;;;5.10;0.43;;;;;;;;;;5058009;28;20467;-86
2023/10/03 08:33:43;;;;;;;1.75;0.35;;;;;;;;;;5057926;28;20028;-86
2023/10/03 08:36:15;;;;;;;4.82;0.73;;;;;;;;;;5057944;28;20102;-86
2023/10/03 08:38:43;;;;;;;2.83;0.22;;;;;;;;;;5058497;28;20029;-86
2023/10/03 08:41:13;;;;;;;2.22;0.32;;;;;;;;;;5057501;28;20035;-86
2023/10/03 08:43:39;;;;;;;5.53;0.20;;;;;;;;;;5058188;28;20036;-86
2023/10/03 08:46:09;;;;;;;1.15;0.30;;;;;;;;;;5058627;28;20060;-86
2023/10/03 08:48:43;;;;;;;1.50;0.45;;;;;;;;;;5057612;28;20082;-86
2023/10/03 08:51:13;;;;;;;0.43;0.10;;;;;;;;;;5058047;28;20040;-86
2023/10/03 08:53:47;;;;;;;1.50;0.35;;;;;;;;;;5057996;28;20021;-86
2023/10/03 08:56:18;;;;;;;0.40;0.20;;;;;;;;;;5058014;28;20040;-86
2023/10/03 08:58:50;;;;;;;1.60;0.40;;;;;;;;;;5057888;28;20033;-86
2023/10/03 09:01:20;;;;;;;2.45;0.47;;;;;;;;;;5057812;28;20031;-87
2023/10/03 09:03:49;;;;;;;;;;;;;;;;;;5056360;28;20390;-87
2023/10/03 09:06:23;;;;;;;1.75;0.25;;;;;;;;;;5057670;28;19997;-87
2023/10/03 09:09:08;;;;;;;1.85;0.30;;;;;;;;;;5057428;28;20142;-85
2023/10/03 09:11:37;;;;;;;1.38;0.30;;;;;;;;;;5058205;28;20382;-85
2023/10/03 09:14:03;;;;;;;3.25;0.60;;;;;;;;;;5057682;28;20020;-86
2023/10/03 09:16:29;;;;;;;2.42;0.43;;;;;;;;;;5057217;28;20582;-85
2023/10/03 09:19:04;;;;;;;3.50;0.55;;;;;;;;;;5057044;28;20418;-85
2023/10/03 09:21:30;;;;;;;3.03;1.10;;;;;;;;;;5057705;28;20458;-86
2023/10/03 09:24:09;;;;;;;3.25;0.55;;;;;;;;;;5056659;28;20035;-85
2023/10/03 09:26:45;;;;;;;3.67;0.63;;;;;;;;;;5053557;28;20037;-85
2023/10/03 09:29:31;;;;;;;3.28;0.70;;;;;;;;;;5054278;28;20269;-84
2023/10/03 09:32:07;;;;;;;6.65;1.08;;;;;;;;;;5053532;28;20029;-85
2023/10/03 09:34:39;;;;;;;3.78;1.25;;;;;;;;;;5053258;28;20179;-85
2023/10/03 09:37:06;;;;;;;4.32;0.85;;;;;;;;;;5053359;28;20063;-85
2023/10/03 09:39:51;;;;;;;3.20;0.80;;;;;;;;;;5054310;28;20025;-86
2023/10/03 09:42:17;;;;;;;2.95;0.90;;;;;;;;;;5054051;28;20052;-85
2023/10/03 09:44:44;;;;;;;3.63;0.60;;;;;;;;;;5054481;28;20036;-85
2023/10/03 09:47:12;;;;;;;5.10;0.75;;;;;;;;;;5052910;28;20025;-86
2023/10/03 09:49:38;;;;;;;2.97;0.57;;;;;;;;;;5053000;28;20048;-86
2023/10/03 09:52:09;;;;;;;4.07;0.80;;;;;;;;;;5052953;28;20450;-85
2023/10/03 09:54:36;;;;;;;4.53;0.70;;;;;;;;;;5054698;28;20028;-85
2023/10/03 09:57:15;;;;;;;6.72;0.85;;;;;;;;;;5052647;28;20120;-85
2023/10/03 09:59:41;;;;;;;2.08;0.50;;;;;;;;;;5054476;28;20017;-85
2023/10/03 10:02:12;;;;;;;4.57;0.80;;;;;;;;;;5052710;28;20131;-85
2023/10/03 10:04:39;;;;;;;8.70;1.20;;;;;;;;;;5054778;28;20017;-85
2023/10/03 10:07:16;;;;;;;5.38;1.25;;;;;;;;;;5054114;28;20109;-85
2023/10/03 10:09:47;;;;;;;6.07;1.50;;;;;;;;;;5053322;28;20025;-85
2023/10/03 10:12:14;;;;;;;8.15;1.60;;;;;;;;;;5053438;28;20041;-85
2023/10/03 10:14:55;;;;;;;6.43;1.50;;;;;;;;;;5052208;28;20025;-86
2023/10/03 10:17:21;;;;;;;5.18;1.48;;;;;;;;;;5052589;28;20052;-85
2023/10/03 10:20:06;;;;;;;5.15;1.40;;;;;;;;;;5052598;28;20059;-85
2023/10/03 10:22:51;;;;;;;6.05;1.50;;;;;;;;;;5052800;28;20033;-85
2023/10/03 10:25:29;;;;;;;5.82;1.38;;;;;;;;;;5053429;28;20426;-85
2023/10/03 10:28:08;;;;;;;5.28;1.35;;;;;;;;;;5052433;28;20132;-85
2023/10/03 10:30:34;;;;;;;5.90;1.17;;;;;;;;;;5052692;28;20037;-85
2023/10/03 10:33:18;;;;;;;5.22;1.17;;;;;;;;;;5053695;28;20426;-85
2023/10/03 10:35:52;;;;;;;6.55;1.55;;;;;;;;;;5056145;28;20028;-85
2023/10/03 10:38:18;;;;;;;4.60;1.73;;;;;;;;;;5057023;28;20021;-85
2023/10/03 10:41:04;;;;;;;8.20;1.65;;;;;;;;;;5055056;28;20067;-85
2023/10/03 10:43:33;;;;;;;7.28;1.75;;;;;;;;;;5052464;28;20086;-85
2023/10/03 10:46:17;;;;;;;6.93;1.60;;;;;;;;;;5053901;28;20463;-85
2023/10/03 10:48:46;;;;;;;7.68;1.15;;;;;;;;;;5053406;28;20018;-85
2023/10/03 10:51:12;;;;;;;6.53;1.35;;;;;;;;;;5053445;28;20071;-85
2023/10/03 10:53:46;;;;;;;6.82;1.90;;;;;;;;;;5058504;28;20041;-85
2023/10/03 10:56:13;;;;;;;4.80;1.20;;;;;;;;;;5067797;28;20031;-85
2023/10/03 10:58:50;;;;;;;4.35;1.20;;;;;;;;;;5055219;28;20059;-85
2023/10/03 11:01:18;;;;;;;7.63;1.13;;;;;;;;;;5066065;28;20025;-86
2023/10/03 11:03:44;;;;;;;8.00;1.33;;;;;;;;;;5065611;28;20029;-85
2023/10/03 11:06:17;;;;;;;4.57;1.08;;;;;;;;;;5053566;28;20060;-85
2023/10/03 11:08:50;;;;;;;4.82;1.20;;;;;;;;;;5052665;28;20111;-85
2023/10/03 11:11:16;;;;;;;5.47;1.52;;;;;;;;;;5052480;28;20029;-85
2023/10/03 11:13:46;;;;;;;3.45;1.05;;;;;;;;;;5052138;28;20056;-85
2023/10/03 11:16:20;;;;;;;7.95;1.95;;;;;;;;;;5053127;28;20021;-85
2023/10/03 11:18:46;;;;;;;5.85;1.10;;;;;;;;;;5052807;28;20032;-85
2023/10/03 11:21:13;;;;;;;5.63;1.60;;;;;;;;;;5051837;28;20060;-85
2023/10/03 11:23:39;;;;;;;5.40;1.30;;;;;;;;;;5053357;28;20029;-85
2023/10/03 11:26:05;;;;;;;5.50;1.30;;;;;;;;;;5053939;28;20064;-85
2023/10/03 11:28:44;;;;;;;5.10;1.10;;;;;;;;;;5055357;28;20094;-85
2023/10/03 11:31:13;;;;;;;4.47;1.37;;;;;;;;;;5056379;28;20032;-86
2023/10/03 11:33:43;;;;;;;5.72;1.55;;;;;;;;;;5056287;28;20044;-85
2023/10/03 11:36:09;;;;;;;8.43;1.60;;;;;;;;;;5056215;28;20064;-85
2023/10/03 11:38:49;;;;;;;4.70;1.10;;;;;;;;;;5055740;28;20037;-85
2023/10/03 11:41:29;;;;;;;4.45;1.30;;;;;;;;;;5055983;28;20035;-85
2023/10/03 11:43:55;;;;;;;;;;;;;;;;;;5056014;28;20478;-85
2023/10/03 11:46:21;;;;;;;4.40;1.50;;;;;;;;;;5055602;28;20004;-85
2023/10/03 11:48:55;;;;;;;3.33;0.95;;;;;;;;;;5055647;28;20052;-85
2023/10/03 11:51:21;;;;;;;5.93;1.20;;;;;;;;;;5055399;28;20053;-85
2023/10/03 11:53:47;;;;;;;7.82;1.30;;;;;;;;;;5055352;28;20036;-86
2023/10/03 11:56:13;;;;;;;5.90;1.40;;;;;;;;;;5055516;28;20419;-86
2023/10/03 11:58:39;;;;;;;6.07;1.70;;;;;;;;;;5055348;28;20067;-85
2023/10/03 12:01:06;;;;;;;5.95;1.25;;;;;;;;;;5055785;28;20124;-85
2023/10/03 12:03:32;;;;;;;8.60;1.55;;;;;;;;;;5055924;28;20410;-85
2023/10/03 12:05:58;;;;;;;10.80;1.80;;;;;;;;;;5055095;28;20036;-86
2023/10/03 12:08:24;;;;;;;5.55;1.23;;;;;;;;;;5054700;28;20033;-86
2023/10/03 12:10:50;;;;;;;7.20;1.58;;;;;;;;;;5056174;28;20376;-85
2023/10/03 12:13:16;;;;;;;15.15;1.60;;;;;;;;;;5055687;28;20032;-86
2023/10/03 12:15:45;;;;;;;8.85;1.75;;;;;;;;;;5055599;28;20036;-85
2023/10/03 12:18:15;;;;;;;7.75;1.65;;;;;;;;;;5055473;28;20021;-85
2023/10/03 12:20:41;;;;;;;4.53;1.20;;;;;;;;;;5056399;28;20025;-86
2023/10/03 12:23:08;;;;;;;2.63;0.93;;;;;;;;;;5054705;28;20278;-86
2023/10/03 12:25:34;;;;;;;2.95;1.02;;;;;;;;;;5055010;28;20501;-85
2023/10/03 12:42:05;;;;;;;5.60;1.23;;;;;;;;;;5710993;23;20054;31
2023/10/03 12:46:59;;;;;;;6.43;1.30;;;;;;;;;;4968749;29;20075;-81
2023/10/03 12:49:26;;;;;;;6.35;1.15;;;;;;;;;;4967692;28;20151;-82
2023/10/03 12:51:53;;;;;;;5.45;1.02;;;;;;;;;;4950672;29;20035;-82
2023/10/03 12:54:19;;;;;;;3.55;1.08;;;;;;;;;;4951593;29;20055;-81
2023/10/03 12:56:45;;;;;;;5.40;1.20;;;;;;;;;;4950459;29;20038;-82
2023/10/03 12:59:11;;;;;;;5.28;0.90;;;;;;;;;;4951845;29;20059;-82
2023/10/03 13:01:37;;;;;;;6.88;1.35;;;;;;;;;;4950660;29;20043;-81
2023/10/03 13:04:03;;;;;;;6.95;1.13;;;;;;;;;;4949159;29;20099;-82
2023/10/03 13:06:30;;;;;;;4.70;1.13;;;;;;;;;;4952160;29;20091;-81
2023/10/03 13:08:56;;;;;;;8.52;1.00;;;;;;;;;;4951195;29;20028;-81
2023/10/03 13:11:22;;;;;;;4.75;1.25;;;;;;;;;;4951564;29;20106;-81
2023/10/03 13:13:49;;;;;;;3.88;1.00;;;;;;;;;;4951867;29;20497;-82
2023/10/03 13:16:16;;;;;;;5.75;1.25;;;;;;;;;;4952107;29;20044;-82
2023/10/03 13:18:42;;;;;;;5.10;1.30;;;;;;;;;;4969958;29;20038;-82
2023/10/03 13:21:08;;;;;;;4.90;1.38;;;;;;;;;;4970309;28;20127;-81
2023/10/03 13:23:35;;;;;;;7.40;1.70;;;;;;;;;;4968841;29;20035;-82
2023/10/03 13:26:01;;;;;;;5.65;1.67;;;;;;;;;;4970053;28;20087;-83
2023/10/03 13:28:28;;;;;;;8.80;1.35;;;;;;;;;;4970902;28;20129;-82
2023/10/03 13:30:56;;;;;;;8.55;1.95;;;;;;;;;;4968145;29;20027;-82
2023/10/03 13:33:22;;;;;;;7.43;2.03;;;;;;;;;;4969665;28;20027;-82
2023/10/03 13:35:48;;;;;;;6.47;1.83;;;;;;;;;;4968854;28;20038;-82
2023/10/03 13:38:14;;;;;;;6.70;1.95;;;;;;;;;;4968880;28;20365;-83
2023/10/03 13:40:43;;;;;;;11.00;1.70;;;;;;;;;;4967812;28;20430;-83
2023/10/03 13:43:11;;;;;;;9.73;2.30;;;;;;;;;;4965834;28;20039;-82
2023/10/03 13:45:42;;;;;;;4.95;1.92;;;;;;;;;;4958025;28;20565;-82
2023/10/03 13:48:08;;;;;;;12.13;2.83;;;;;;;;;;4966716;28;20083;-82
2023/10/03 13:50:35;;;;;;;7.32;2.15;;;;;;;;;;4967189;28;20033;-82
2023/10/03 13:53:04;;;;;;;8.15;1.88;;;;;;;;;;4965429;29;20478;-83
2023/10/03 13:55:30;;;;;;;9.20;2.30;;;;;;;;;;4966802;28;20031;-82
2023/10/03 13:57:56;;;;;;;15.13;2.10;;;;;;;;;;4967321;28;20027;-82
2023/10/03 14:00:22;;;;;;;7.10;2.05;;;;;;;;;;4965030;29;20031;-82
2023/10/03 14:02:50;;;;;;;10.23;2.03;;;;;;;;;;4965678;28;20066;-82
2023/10/03 14:05:16;;;;;;;7.00;1.98;;;;;;;;;;4960753;28;20030;-82
2023/10/03 14:07:42;;;;;;;9.73;2.40;;;;;;;;;;4968685;28;20047;-82
2023/10/03 14:10:17;;;;;;;10.80;1.92;;;;;;;;;;4962048;28;20051;-82
2023/10/03 14:12:43;;;;;;;7.50;1.55;;;;;;;;;;4965782;28;20043;-82
2023/10/03 14:15:10;;;;;;;9.95;1.85;;;;;;;;;;4969394;28;20027;-83
2023/10/03 14:17:36;;;;;;;8.98;1.88;;;;;;;;;;4971138;28;20056;-82
2023/10/03 14:20:05;;;;;;;13.80;2.35;;;;;;;;;;4974589;28;20051;-82
2023/10/03 14:22:32;;;;;;;9.32;1.70;;;;;;;;;;4968451;28;20027;-82
2023/10/03 14:24:58;;;;;;;7.80;1.90;;;;;;;;;;4971160;28;20031;-82
2023/10/03 14:27:24;;;;;;;6.20;1.60;;;;;;;;;;4975399;28;20034;-82
2023/10/03 14:29:50;;;;;;;5.88;1.77;;;;;;;;;;4968357;28;20106;-82
2023/10/03 14:32:18;;;;;;;9.15;1.67;;;;;;;;;;4966569;28;20023;-82
2023/10/03 14:34:45;;;;;;;6.15;1.80;;;;;;;;;;4965763;28;20030;-82
2023/10/03 14:37:11;;;;;;;7.38;1.63;;;;;;;;;;4958394;28;20042;-82
2023/10/03 14:39:38;;;;;;;5.85;2.03;;;;;;;;;;4964195;28;20027;-82
2023/10/03 14:42:04;;;;;;;8.13;1.77;;;;;;;;;;4961405;28;20059;-82
2023/10/03 14:44:30;;;;;;;9.48;2.15;;;;;;;;;;4961849;29;20032;-82
2023/10/03 14:46:57;;;;;;;4.60;1.52;;;;;;;;;;4967283;28;20370;-82
2023/10/03 14:49:24;;;;;;;4.97;1.77;;;;;;;;;;4958052;28;20051;-82
2023/10/03 14:51:50;;;;;;;9.15;1.92;;;;;;;;;;4967838;28;20019;-82
2023/10/03 14:54:18;;;;;;;8.05;2.13;;;;;;;;;;4963995;29;20055;-82
2023/10/03 14:56:47;;;;;;;7.35;1.77;;;;;;;;;;4962180;28;20027;-82
2023/10/03 14:59:13;;;;;;;11.10;1.77;;;;;;;;;;4967453;28;20024;-82
2023/10/03 15:01:39;;;;;;;7.03;1.92;;;;;;;;;;4970026;28;20075;-82
2023/10/03 15:04:05;;;;;;;7.32;1.70;;;;;;;;;;4969675;28;20496;-82
2023/10/03 15:06:31;;;;;;;6.75;1.50;;;;;;;;;;4970382;28;20055;-82
2023/10/03 15:08:57;;;;;;;8.45;1.65;;;;;;;;;;4961224;28;20034;-82
2023/10/03 15:11:24;;;;;;;7.38;1.23;;;;;;;;;;4971623;28;20472;-82
2023/10/03 15:13:50;;;;;;;7.85;2.05;;;;;;;;;;4967339;28;20035;-82
2023/10/03 15:16:16;;;;;;;7.30;1.70;;;;;;;;;;4965277;28;20024;-82
2023/10/03 15:18:43;;;;;;;7.22;1.42;;;;;;;;;;4971472;28;20082;-82
2023/10/03 15:21:09;;;;;;;4.25;1.52;;;;;;;;;;4971393;28;20023;-82
2023/10/03 15:23:36;;;;;;;7.03;1.63;;;;;;;;;;4971635;29;20085;-82
2023/10/03 15:26:05;;;;;;;6.70;1.40;;;;;;;;;;4971202;28;20035;-82
2023/10/03 15:28:31;;;;;;;7.15;2.08;;;;;;;;;;4970691;28;20019;-82
2023/10/03 15:30:57;;;;;;;7.35;1.65;;;;;;;;;;4971077;28;20023;-82
2023/10/03 15:33:27;;;;;;;7.80;1.73;;;;;;;;;;4969878;28;20031;-82
2023/10/03 15:35:55;;;;;;;8.18;1.52;;;;;;;;;;4967999;29;20040;-82
2023/10/03 15:38:23;;;;;;;6.45;1.27;;;;;;;;;;4970154;28;20019;-82
2023/10/03 15:40:49;;;;;;;6.32;1.40;;;;;;;;;;4970100;28;20106;-82
2023/10/03 15:43:16;;;;;;;7.00;1.80;;;;;;;;;;4968789;28;20039;-82
2023/10/03 15:45:42;;;;;;;6.35;1.20;;;;;;;;;;4966707;28;20387;-82
2023/10/03 15:48:09;;;;;;;6.82;1.77;;;;;;;;;;4964387;28;20020;-82